Hartsgrove, Ohio
Current Conditions -  °F | °C
As of 1:53 AM on Friday 31 Oct 2014 (Local Time) from KHZY Reporting Station
Scattered Clouds Scattered Clouds  
Wind Chill: 38°   Ceiling: Unl
Heat Index: 38°   Visibility: 10mi
Dew Point: 36°   Wind: 3mph
Humidity: 93%   Direction: 170°S
Pressure: 30.02"   Gusts: NA
Location:  41.6051°N, 80.867°W
Report Text: KHZY 310553Z AUTO 17003KT 10SM SCT049 03/02 A3002 RMK AO2 SLP169 T00330022 10050 20022 56011
Loading
Personal Weather Stations






























Interactive Weather Map
Tropical Storm Tracking
New forecast layout! Learn more

10-Day Weather Forecast

Advertisements
Track Severe Weather on mobile